Time;durP1;ratioP1;P1;durP2;ratioP2;P2;SDS_P1;SDS_P2;PMS_P1;PMS_P2;Temp;Humidity;BMP_temperature;BMP_pressure;BME280_temperature;BME280_humidity;BME280_pressure;Samples;Min_cycle;Max_cycle;Signal;HPM_P1;HPM_P2
2022/08/21 00:01:12;;;;;;;1.77;1.73;;;19.40;55.70;;;;;;20558;6836;294683;-88
2022/08/21 00:03:38;;;;;;;1.90;1.80;;;19.70;55.20;;;;;;20771;6836;116517;-86
2022/08/21 00:06:06;;;;;;;2.43;2.03;;;19.70;55.30;;;;;;20519;6836;278067;-88
2022/08/21 00:08:32;;;;;;;2.20;2.10;;;20.00;54.60;;;;;;20517;6836;281969;-88
2022/08/21 00:10:57;;;;;;;2.03;1.85;;;20.20;53.90;;;;;;20537;6837;283511;-87
2022/08/21 00:13:23;;;;;;;2.30;2.10;;;20.50;53.40;;;;;;20583;6823;278731;-87
2022/08/21 00:15:49;;;;;;;2.20;2.00;;;20.80;52.90;;;;;;20583;6823;302577;-88
2022/08/21 00:18:16;;;;;;;2.37;2.20;;;20.80;52.90;;;;;;20773;6823;117404;-89
2022/08/21 00:20:41;;;;;;;3.63;1.73;;;20.50;53.30;;;;;;20797;6823;117264;-87
2022/08/21 00:23:07;;;;;;;2.40;2.20;;;20.20;54.10;;;;;;20777;6823;117847;-89
2022/08/21 00:25:33;;;;;;;1.92;1.83;;;19.90;54.70;;;;;;20527;6828;313187;-88
2022/08/21 00:27:58;;;;;;;2.00;1.87;;;20.00;54.20;;;;;;20546;6815;308165;-89
2022/08/21 00:30:24;;;;;;;2.17;2.03;;;20.30;53.80;;;;;;20606;6818;277617;-88
2022/08/21 00:32:50;;;;;;;2.15;2.05;;;20.60;53.70;;;;;;20592;6818;337011;-87
2022/08/21 00:35:16;;;;;;;2.03;1.87;;;20.60;53.00;;;;;;20813;6818;117572;-89
2022/08/21 00:37:43;;;;;;;2.30;2.10;;;20.10;54.10;;;;;;20807;6816;117255;-89
2022/08/21 00:40:09;;;;;;;2.03;1.93;;;20.00;54.00;;;;;;20797;6812;118658;-88
2022/08/21 00:42:34;;;;;;;2.28;2.08;;;19.70;54.70;;;;;;20816;6812;117590;-89
2022/08/21 00:45:02;;;;;;;2.00;1.90;;;19.30;55.80;;;;;;20811;6811;117103;-87
2022/08/21 00:47:26;;;;;;;2.90;2.30;;;19.30;55.80;;;;;;20824;6809;117013;-88
2022/08/21 00:49:52;;;;;;;2.67;2.33;;;19.20;56.30;;;;;;20614;6810;277729;-88
2022/08/21 00:52:17;;;;;;;2.50;2.30;;;19.40;55.90;;;;;;20807;6811;117389;-87
2022/08/21 00:54:43;;;;;;;2.43;2.23;;;19.40;55.90;;;;;;20843;6811;118093;-89
2022/08/21 00:57:12;;;;;;;2.10;2.00;;;19.30;56.30;;;;;;20613;6811;307192;-88
2022/08/21 00:59:37;;;;;;;2.30;2.20;;;19.50;55.90;;;;;;20582;6811;278097;-87
2022/08/21 01:02:05;;;;;;;2.67;2.30;;;19.80;55.30;;;;;;20590;6811;336715;-89
2022/08/21 01:04:32;;;;;;;2.63;2.03;;;20.00;54.80;;;;;;20829;6811;117593;-89
2022/08/21 01:06:57;;;;;;;3.37;2.30;;;19.80;55.10;;;;;;20829;6811;117175;-88
2022/08/21 01:09:24;;;;;;;2.83;2.10;;;19.20;56.50;;;;;;20827;6811;117494;-90
2022/08/21 01:11:49;;;;;;;2.57;2.20;;;19.20;56.50;;;;;;20867;6811;120798;-88
2022/08/21 01:14:19;;;;;;;2.00;1.90;;;18.80;57.40;;;;;;20795;6811;117571;-88
2022/08/21 01:16:43;;;;;;;2.43;2.20;;;18.70;57.80;;;;;;20817;6811;125062;-89
2022/08/21 01:19:09;;;;;;;2.83;2.47;;;18.60;57.60;;;;;;20634;6811;306417;-88
2022/08/21 01:21:34;;;;;;;2.50;2.30;;;18.90;57.10;;;;;;20879;6811;117159;-86
2022/08/21 01:24:00;;;;;;;2.97;2.53;;;18.90;57.00;;;;;;20605;6811;277628;-89
2022/08/21 01:26:29;;;;;;;3.07;2.67;;;18.90;56.10;;;;;;20831;6811;117348;-90
2022/08/21 01:28:58;;;;;;;2.60;2.40;;;18.90;56.10;;;;;;20613;6811;306330;-86
2022/08/21 01:31:24;;;;;;;2.43;2.30;;;19.00;56.60;;;;;;20587;6811;289304;-89
2022/08/21 01:33:49;;;;;;;2.80;2.50;;;19.30;55.40;;;;;;20607;6811;306603;-89
2022/08/21 01:36:15;;;;;;;2.62;2.40;;;19.50;54.90;;;;;;20805;6811;117646;-88
2022/08/21 01:38:42;;;;;;;2.65;2.50;;;19.40;55.20;;;;;;20664;6811;280373;-86
2022/08/21 01:41:07;;;;;;;3.42;2.80;;;19.40;54.90;;;;;;20701;6811;335471;-85
2022/08/21 01:43:33;;;;;;;4.85;2.58;;;19.50;54.60;;;;;;20922;6811;67172;-89
2022/08/21 01:45:58;;;;;;;2.80;2.60;;;19.30;54.90;;;;;;20600;6811;321250;-89
2022/08/21 01:48:24;;;;;;;2.92;2.60;;;19.30;54.20;;;;;;20624;6811;305959;-88
2022/08/21 01:50:49;;;;;;;2.87;2.67;;;19.40;54.20;;;;;;20832;6811;117160;-88
2022/08/21 01:53:15;;;;;;;2.97;2.60;;;19.20;55.40;;;;;;20829;6811;117173;-87
2022/08/21 01:55:41;;;;;;;2.60;2.40;;;18.80;55.50;;;;;;20834;6811;117187;-88
2022/08/21 01:58:06;;;;;;;2.90;2.60;;;18.50;56.30;;;;;;20591;6811;279014;-87
2022/08/21 02:00:32;;;;;;;3.40;2.97;;;18.60;56.50;;;;;;20614;6810;336970;-89
2022/08/21 02:02:57;;;;;;;2.67;2.55;;;18.90;56.00;;;;;;20830;6811;117005;-88
2022/08/21 02:05:23;;;;;;;3.97;2.50;;;18.70;56.10;;;;;;20833;6811;117546;-88
2022/08/21 02:07:49;;;;;;;3.10;2.90;;;18.30;57.50;;;;;;20815;6811;117350;-89
2022/08/21 02:10:15;;;;;;;3.58;2.80;;;18.20;57.30;;;;;;20595;6811;277453;-87
2022/08/21 02:12:40;;;;;;;3.33;3.03;;;18.40;57.30;;;;;;20622;6811;277679;-90
2022/08/21 02:15:07;;;;;;;2.73;2.53;;;18.70;56.60;;;;;;20899;6811;116241;-87
2022/08/21 02:17:36;;;;;;;3.20;2.90;;;18.60;56.70;;;;;;20914;6811;67509;-88
2022/08/21 02:20:02;;;;;;;3.30;3.00;;;18.30;57.40;;;;;;20614;6811;276165;-89
2022/08/21 02:22:31;;;;;;;3.10;2.60;;;18.40;57.10;;;;;;20831;6811;117306;-88
2022/08/21 02:24:56;;;;;;;4.17;2.83;;;18.40;57.50;;;;;;20828;6811;118094;-89
2022/08/21 02:27:22;;;;;;;2.73;2.53;;;18.20;58.00;;;;;;20827;6811;117174;-88
2022/08/21 02:29:48;;;;;;;4.35;3.40;;;18.10;57.60;;;;;;20612;6811;277235;-89
2022/08/21 02:32:15;;;;;;;4.20;3.20;;;18.10;57.60;;;;;;20603;6811;305179;-87
2022/08/21 02:34:40;;;;;;;3.27;3.07;;;18.40;57.10;;;;;;20612;6811;306731;-89
2022/08/21 02:37:06;;;;;;;3.65;2.47;;;18.70;56.50;;;;;;20832;6811;117545;-88
2022/08/21 02:39:31;;;;;;;3.50;2.65;;;18.50;56.60;;;;;;20827;6811;117611;-89
2022/08/21 02:41:57;;;;;;;2.90;2.67;;;18.20;57.30;;;;;;20812;6811;121187;-88
2022/08/21 02:44:23;;;;;;;2.95;2.85;;;18.00;57.90;;;;;;20831;6811;117616;-89
2022/08/21 02:46:48;;;;;;;3.10;2.90;;;17.80;58.30;;;;;;20611;6811;320147;-90
2022/08/21 02:49:15;;;;;;;2.97;2.77;;;18.00;58.30;;;;;;20823;6811;117197;-88
2022/08/21 02:51:41;;;;;;;3.00;2.70;;;18.00;58.30;;;;;;20610;6811;278595;-87
2022/08/21 02:54:06;;;;;;;3.53;3.27;;;18.50;57.10;;;;;;20591;6811;337678;-87
2022/08/21 02:56:33;;;;;;;2.97;2.77;;;18.50;57.00;;;;;;20824;6811;117749;-89
2022/08/21 02:58:59;;;;;;;3.03;2.73;;;18.40;57.10;;;;;;20815;6811;117227;-87
2022/08/21 03:01:25;;;;;;;3.30;3.00;;;18.10;57.60;;;;;;20616;6811;306525;-90
2022/08/21 03:03:55;;;;;;;3.77;3.10;;;18.20;57.40;;;;;;20619;6811;277492;-89
2022/08/21 03:06:21;;;;;;;3.00;2.80;;;18.50;57.00;;;;;;20619;6811;277244;-89
2022/08/21 03:08:46;;;;;;;3.23;2.93;;;18.70;56.00;;;;;;20615;6811;277290;-89
2022/08/21 03:11:11;;;;;;;3.00;2.80;;;18.90;55.50;;;;;;20618;6809;306510;-89
2022/08/21 03:13:38;;;;;;;3.20;3.00;;;19.00;55.10;;;;;;20618;6810;284837;-89
2022/08/21 03:16:03;;;;;;;3.10;2.80;;;19.10;54.80;;;;;;20803;6811;117372;-89
2022/08/21 03:18:29;;;;;;;2.57;2.47;;;18.80;55.40;;;;;;20838;6811;121706;-87
2022/08/21 03:20:55;;;;;;;3.30;3.10;;;18.40;56.30;;;;;;20611;6811;307606;-89
2022/08/21 03:23:20;;;;;;;3.17;2.87;;;18.50;56.20;;;;;;20626;6811;276941;-87
2022/08/21 03:25:46;;;;;;;3.00;2.80;;;18.70;55.80;;;;;;20822;6811;116967;-91
2022/08/21 03:28:12;;;;;;;3.20;3.00;;;18.50;56.00;;;;;;20786;6811;121529;-89
2022/08/21 03:30:37;;;;;;;2.97;2.87;;;18.20;56.70;;;;;;20809;6811;117900;-87
2022/08/21 03:33:03;;;;;;;2.80;2.60;;;17.90;57.30;;;;;;20871;6811;117675;-90
2022/08/21 03:35:28;;;;;;;3.33;3.10;;;17.70;57.90;;;;;;20613;6811;316469;-90
2022/08/21 03:37:55;;;;;;;3.60;3.30;;;18.10;57.80;;;;;;20615;6811;280677;-89
2022/08/21 03:40:20;;;;;;;3.65;3.35;;;18.10;57.20;;;;;;20402;6826;340000;-90
2022/08/21 03:42:46;;;;;;;3.70;3.40;;;18.40;56.60;;;;;;20561;6826;307313;-90
2022/08/21 03:45:11;;;;;;;3.97;3.70;;;18.50;55.90;;;;;;20559;6826;307951;-90
2022/08/21 03:47:37;;;;;;;3.37;3.17;;;18.60;55.60;;;;;;20559;6828;284943;-90
2022/08/21 03:50:04;;;;;;;4.53;3.50;;;18.40;55.80;;;;;;20773;6822;123413;-89
2022/08/21 03:52:30;;;;;;;2.97;2.83;;;18.40;55.80;;;;;;20774;6822;117896;-89
2022/08/21 03:54:56;;;;;;;3.80;3.50;;;18.00;56.60;;;;;;20593;6824;309610;-90
2022/08/21 03:57:22;;;;;;;3.80;3.50;;;18.00;56.50;;;;;;20616;6824;292956;-89
2022/08/21 03:59:47;;;;;;;3.40;3.10;;;18.20;56.30;;;;;;20803;6831;116886;-91
2022/08/21 04:02:13;;;;;;;4.20;3.80;;;18.00;56.70;;;;;;20532;6832;326927;-91
2022/08/21 04:04:39;;;;;;;3.47;3.27;;;17.90;57.30;;;;;;20756;6832;117432;-90
2022/08/21 04:07:05;;;;;;;3.50;3.27;;;17.90;57.00;;;;;;20761;6832;117824;-90
2022/08/21 04:09:30;;;;;;;3.55;3.35;;;17.60;57.70;;;;;;20543;6832;312128;-89
2022/08/21 04:11:56;;;;;;;3.33;3.13;;;17.60;57.80;;;;;;20724;6826;121160;-90
2022/08/21 04:14:22;;;;;;;3.30;3.10;;;17.60;57.80;;;;;;20563;6826;323113;-91
2022/08/21 04:16:48;;;;;;;3.37;3.27;;;17.70;57.90;;;;;;20779;6826;117503;-90
2022/08/21 04:19:13;;;;;;;3.22;3.03;;;17.60;58.00;;;;;;20779;6826;117442;-91
2022/08/21 04:21:39;;;;;;;3.40;3.10;;;17.40;58.50;;;;;;20778;6824;117236;-88
2022/08/21 04:24:04;;;;;;;3.80;3.50;;;17.20;59.10;;;;;;20547;6825;307634;-91
2022/08/21 04:26:30;;;;;;;3.27;3.07;;;17.40;59.30;;;;;;20780;6825;117762;-90
2022/08/21 04:28:57;;;;;;;3.70;3.40;;;17.40;59.00;;;;;;20554;6826;282835;-90
2022/08/21 04:31:21;;;;;;;3.63;3.43;;;17.60;58.50;;;;;;20802;6811;120619;-91
2022/08/21 04:33:47;;;;;;;3.25;3.15;;;17.60;58.60;;;;;;20823;6811;121186;-89
2022/08/21 04:36:12;;;;;;;3.50;3.20;;;17.40;59.10;;;;;;20803;6811;117214;-91
2022/08/21 04:38:38;;;;;;;3.63;3.30;;;17.00;60.00;;;;;;20762;6831;117465;-91
2022/08/21 04:41:06;;;;;;;3.63;3.20;;;17.00;60.00;;;;;;20778;6820;117226;-91
2022/08/21 04:43:30;;;;;;;3.92;3.72;;;16.90;60.40;;;;;;20599;6820;322427;-89
2022/08/21 04:45:55;;;;;;;3.77;3.40;;;17.20;60.00;;;;;;20542;6838;280089;-91
2022/08/21 04:48:21;;;;;;;3.37;3.17;;;17.60;59.10;;;;;;20799;6828;116730;-89
2022/08/21 04:50:59;;;;;;;2.97;2.87;;;17.60;59.10;;;;;;20829;6834;116764;-88
2022/08/21 04:53:31;;;;;;;3.20;3.10;;;17.40;59.60;;;;;;20780;6834;117272;-91
2022/08/21 04:55:58;;;;;;;3.40;3.20;;;17.10;60.70;;;;;;20735;6832;122309;-88
2022/08/21 04:58:23;;;;;;;4.03;3.43;;;17.00;60.50;;;;;;20766;6824;120401;-88
2022/08/21 05:00:49;;;;;;;3.60;3.35;;;17.00;60.90;;;;;;20544;6833;307130;-88
2022/08/21 05:03:14;;;;;;;4.27;3.30;;;17.30;60.00;;;;;;20786;6824;117386;-88
2022/08/21 05:05:40;;;;;;;4.80;4.00;;;17.30;59.90;;;;;;20573;6824;322423;-88
2022/08/21 05:08:06;;;;;;;3.97;3.78;;;17.50;59.00;;;;;;20743;6833;127677;-89
2022/08/21 05:10:32;;;;;;;4.10;3.90;;;17.50;59.10;;;;;;20531;6833;308619;-87
2022/08/21 05:12:57;;;;;;;4.75;3.85;;;17.60;59.10;;;;;;20744;6828;117122;-87
2022/08/21 05:15:23;;;;;;;3.40;3.20;;;17.60;59.10;;;;;;20771;6828;117051;-89
2022/08/21 05:17:50;;;;;;;3.23;3.03;;;17.40;59.60;;;;;;20788;6828;117062;-90
2022/08/21 05:20:14;;;;;;;4.30;3.90;;;17.30;60.20;;;;;;20499;6836;290245;-89
2022/08/21 05:22:40;;;;;;;4.17;3.60;;;17.50;59.70;;;;;;20709;6848;121515;-90
2022/08/21 05:25:06;;;;;;;3.83;3.63;;;17.40;60.40;;;;;;20705;6848;117862;-90
2022/08/21 05:27:32;;;;;;;5.20;3.57;;;17.40;60.10;;;;;;20524;6839;277580;-89
2022/08/21 05:29:57;;;;;;;3.50;3.30;;;17.60;59.70;;;;;;20735;6835;117572;-91
2022/08/21 05:32:24;;;;;;;3.90;3.57;;;17.50;60.10;;;;;;20714;6845;117411;-90
2022/08/21 05:34:50;;;;;;;3.33;3.13;;;17.40;60.00;;;;;;20741;6838;117188;-91
2022/08/21 05:37:15;;;;;;;4.00;3.70;;;17.30;60.40;;;;;;20506;6844;285925;-91
2022/08/21 05:39:41;;;;;;;4.17;3.83;;;17.60;60.10;;;;;;20546;6834;278431;-89
2022/08/21 05:42:06;;;;;;;3.93;3.63;;;18.00;59.10;;;;;;20501;6829;288420;-88
2022/08/21 05:44:32;;;;;;;4.22;3.92;;;18.30;58.40;;;;;;20600;6819;312607;-91
2022/08/21 05:47:04;;;;;;;2.97;2.87;;;18.50;57.60;;;;;;20780;6819;117524;-90
2022/08/21 05:49:29;;;;;;;4.00;3.60;;;18.40;58.10;;;;;;20715;6837;120992;-90
2022/08/21 05:51:55;;;;;;;4.10;3.90;;;18.10;58.90;;;;;;20739;6837;117515;-89
2022/08/21 05:54:21;;;;;;;3.67;3.43;;;17.70;60.50;;;;;;20762;6833;117532;-90
2022/08/21 05:56:47;;;;;;;4.33;4.03;;;17.70;60.20;;;;;;20539;6841;279010;-91
2022/08/21 05:59:12;;;;;;;3.67;3.47;;;18.00;60.00;;;;;;20721;6841;117266;-89
2022/08/21 06:01:38;;;;;;;4.25;4.05;;;18.00;59.90;;;;;;20615;6826;277186;-89
2022/08/21 06:04:04;;;;;;;4.53;4.22;;;18.20;59.50;;;;;;20519;6841;278863;-87
2022/08/21 06:06:29;;;;;;;4.18;3.95;;;18.60;59.00;;;;;;20530;6839;307975;-89
2022/08/21 06:08:55;;;;;;;3.90;3.70;;;18.80;58.10;;;;;;20731;6841;117210;-90
2022/08/21 06:11:20;;;;;;;4.40;4.20;;;18.70;58.30;;;;;;20573;6826;334557;-89
2022/08/21 06:13:46;;;;;;;3.80;3.50;;;18.80;58.40;;;;;;20738;6841;117194;-89
2022/08/21 06:16:12;;;;;;;4.10;3.80;;;18.70;58.70;;;;;;20510;6839;308197;-89
2022/08/21 06:18:37;;;;;;;4.10;3.90;;;18.80;58.40;;;;;;20520;6841;299922;-87
2022/08/21 06:21:03;;;;;;;3.77;3.50;;;19.10;58.40;;;;;;20794;6823;117107;-90
2022/08/21 06:23:28;;;;;;;4.20;3.80;;;19.00;58.60;;;;;;20608;6809;307428;-87
2022/08/21 06:25:54;;;;;;;4.00;3.80;;;19.10;58.40;;;;;;20836;6809;120107;-88
2022/08/21 06:28:19;;;;;;;3.43;3.33;;;19.10;58.70;;;;;;20434;6809;120339;-87
2022/08/21 06:30:45;;;;;;;4.10;3.80;;;18.90;59.40;;;;;;20620;6809;307052;-87
2022/08/21 06:33:10;;;;;;;3.80;3.60;;;19.10;59.70;;;;;;20839;6809;117285;-87
2022/08/21 06:38:42;;;;;;;5.17;3.80;;;19.40;58.70;;;;;;21444;6515;90380;-87
2022/08/21 06:41:07;;;;;;;3.67;3.47;;;19.40;59.00;;;;;;20844;6816;116918;-86
2022/08/21 06:43:33;;;;;;;3.63;3.40;;;19.30;59.60;;;;;;20723;6789;277516;-88
2022/08/21 06:45:58;;;;;;;3.47;3.28;;;19.50;59.10;;;;;;20858;6789;117940;-88
2022/08/21 06:48:24;;;;;;;3.50;3.20;;;19.70;59.30;;;;;;20568;6839;299265;-88
2022/08/21 06:50:49;;;;;;;4.13;3.20;;;20.00;58.00;;;;;;20781;6839;117229;-87
2022/08/21 06:53:15;;;;;;;3.58;3.28;;;20.10;58.30;;;;;;20542;6839;297404;-88
2022/08/21 06:55:41;;;;;;;2.83;2.73;;;20.30;57.10;;;;;;20745;6843;117855;-87
2022/08/21 06:58:06;;;;;;;3.27;3.07;;;20.50;57.50;;;;;;20450;6856;309116;-88
2022/08/21 07:00:32;;;;;;;3.57;3.10;;;21.20;55.90;;;;;;20450;6878;325849;-89
2022/08/21 07:02:59;;;;;;;3.00;2.80;;;21.20;55.90;;;;;;20650;6880;121939;-88
2022/08/21 07:05:25;;;;;;;3.07;2.83;;;21.40;56.10;;;;;;20449;6878;279601;-88
2022/08/21 07:07:52;;;;;;;3.00;2.80;;;21.60;54.70;;;;;;20436;6878;340109;-88
2022/08/21 07:10:17;;;;;;;3.20;2.90;;;22.00;54.30;;;;;;20426;6878;310505;-88
2022/08/21 07:12:44;;;;;;;3.67;2.60;;;22.40;53.70;;;;;;20705;6857;118648;-88
2022/08/21 07:15:09;;;;;;;2.95;2.67;;;22.40;53.70;;;;;;20510;6857;341378;-88
2022/08/21 07:17:35;;;;;;;2.90;2.63;;;22.60;52.00;;;;;;20708;6859;120209;-88
2022/08/21 07:20:01;;;;;;;3.00;2.80;;;22.60;52.70;;;;;;20697;6859;117996;-88
2022/08/21 07:22:27;;;;;;;2.70;2.50;;;22.50;53.30;;;;;;20709;6859;117826;-88
2022/08/21 07:24:53;;;;;;;2.70;2.60;;;22.50;53.70;;;;;;20503;6859;280447;-88
2022/08/21 07:27:19;;;;;;;2.40;2.30;;;22.90;52.20;;;;;;20712;6859;117213;-88
2022/08/21 07:29:45;;;;;;;2.47;2.37;;;22.80;52.10;;;;;;20501;6861;309113;-88
2022/08/21 07:32:12;;;;;;;2.40;2.30;;;23.20;51.00;;;;;;20738;6849;117387;-88
2022/08/21 07:34:39;;;;;;;2.57;2.40;;;23.30;51.50;;;;;;20746;6849;117520;-88
2022/08/21 07:37:04;;;;;;;4.63;2.77;;;23.30;51.80;;;;;;20749;6849;117598;-89
2022/08/21 07:39:30;;;;;;;2.70;2.50;;;23.30;52.00;;;;;;20541;6849;338198;-88
2022/08/21 07:41:56;;;;;;;2.50;2.30;;;23.60;50.50;;;;;;20524;6849;308590;-89
2022/08/21 07:44:22;;;;;;;3.03;2.23;;;24.30;49.10;;;;;;20741;6849;117986;-89
2022/08/21 07:46:49;;;;;;;2.20;2.10;;;24.30;49.10;;;;;;20746;6849;118257;-89
2022/08/21 07:49:14;;;;;;;2.47;2.28;;;24.20;49.90;;;;;;20541;6848;278518;-88
2022/08/21 07:51:40;;;;;;;2.23;2.13;;;24.50;48.60;;;;;;20756;6849;121398;-88
2022/08/21 07:54:06;;;;;;;2.50;2.40;;;24.70;49.10;;;;;;20500;6849;310861;-88
2022/08/21 07:56:31;;;;;;;3.62;2.53;;;25.00;47.80;;;;;;20502;6861;337828;-88
2022/08/21 07:58:57;;;;;;;4.28;2.67;;;25.30;46.90;;;;;;20536;6849;339810;-88
2022/08/21 08:01:22;;;;;;;3.53;2.60;;;25.70;45.90;;;;;;20716;6861;120302;-88
2022/08/21 08:03:48;;;;;;;2.30;2.20;;;25.60;46.90;;;;;;20765;6849;116441;-89
2022/08/21 08:06:16;;;;;;;3.17;2.83;;;25.60;46.90;;;;;;20516;6849;429198;-89
2022/08/21 08:08:40;;;;;;;2.77;2.53;;;25.80;44.10;;;;;;20752;6849;117603;-89
2022/08/21 08:11:05;;;;;;;2.83;2.50;;;25.80;45.50;;;;;;20502;6859;310637;-89
2022/08/21 08:13:33;;;;;;;3.27;2.87;;;26.10;43.90;;;;;;20720;6859;117409;-89
2022/08/21 08:15:58;;;;;;;2.83;2.63;;;26.20;44.60;;;;;;20679;6859;120256;-89
2022/08/21 08:18:23;;;;;;;3.20;2.90;;;26.10;45.60;;;;;;20719;6859;117604;-89
2022/08/21 08:20:52;;;;;;;3.15;2.80;;;26.10;46.00;;;;;;20505;6859;308862;-89
2022/08/21 08:23:17;;;;;;;3.83;3.17;;;26.40;44.00;;;;;;20505;6859;308846;-89
2022/08/21 08:25:43;;;;;;;4.80;2.90;;;26.90;42.40;;;;;;20719;6859;117346;-89
2022/08/21 08:28:09;;;;;;;3.70;3.20;;;27.00;44.10;;;;;;20493;6860;279268;-89
2022/08/21 08:30:34;;;;;;;4.43;3.03;;;27.10;41.10;;;;;;20717;6860;117995;-89
2022/08/21 08:33:01;;;;;;;4.18;2.90;;;27.10;42.40;;;;;;20485;6861;278721;-89
2022/08/21 08:35:28;;;;;;;3.30;3.00;;;27.30;41.20;;;;;;20746;6849;118461;-89
2022/08/21 08:37:52;;;;;;;3.90;3.10;;;27.40;42.30;;;;;;20512;6849;307749;-89
2022/08/21 08:40:19;;;;;;;3.17;2.87;;;27.50;39.80;;;;;;20732;6849;122193;-89
2022/08/21 08:42:47;;;;;;;4.00;3.47;;;27.60;41.80;;;;;;19751;6857;324148;-89
2022/08/21 08:45:10;;;;;;;3.30;3.10;;;27.70;40.70;;;;;;20721;6842;117236;-89
2022/08/21 08:47:36;;;;;;;3.80;3.43;;;27.80;41.50;;;;;;20512;6842;309323;-89
2022/08/21 08:50:05;;;;;;;3.72;3.30;;;27.90;38.30;;;;;;20691;6857;117977;-89
2022/08/21 08:52:33;;;;;;;3.40;3.00;;;27.90;40.00;;;;;;20710;6858;118085;-89
2022/08/21 08:55:06;;;;;;;4.83;3.20;;;27.70;40.80;;;;;;20709;6858;117651;-89
2022/08/21 08:57:31;;;;;;;3.40;3.20;;;27.60;41.40;;;;;;20711;6858;117786;-89
2022/08/21 08:59:58;;;;;;;4.33;3.00;;;27.60;41.90;;;;;;20695;6852;117561;-89
2022/08/21 09:02:24;;;;;;;3.47;3.17;;;27.60;42.10;;;;;;20734;6852;117753;-89
2022/08/21 09:04:49;;;;;;;3.47;3.17;;;27.60;42.00;;;;;;20738;6852;122167;-89
2022/08/21 09:07:24;;;;;;;4.85;3.47;;;27.70;42.00;;;;;;20525;6852;279665;-90
2022/08/21 09:10:12;;;;;;;3.90;3.30;;;28.00;38.20;;;;;;20734;6852;117508;-90
2022/08/21 09:13:01;;;;;;;3.87;3.50;;;28.10;38.90;;;;;;19806;6853;279456;-90
2022/08/21 09:15:47;;;;;;;3.50;3.20;;;28.40;39.50;;;;;;20483;6857;338233;-90
2022/08/21 09:18:27;;;;;;;3.37;3.08;;;28.80;37.10;;;;;;20493;6857;338111;-91
2022/08/21 09:21:11;;;;;;;3.10;2.90;;;29.20;38.00;;;;;;20688;6857;117411;-90
2022/08/21 09:23:49;;;;;;;3.47;3.17;;;29.20;39.20;;;;;;20709;6857;117671;-90
2022/08/21 09:26:17;;;;;;;6.67;2.97;;;29.00;39.20;;;;;;20677;6857;187906;-90
2022/08/21 09:28:43;;;;;;;3.70;3.40;;;28.80;39.60;;;;;;20126;6857;279874;-90
2022/08/21 09:31:08;;;;;;;3.93;3.63;;;29.00;36.90;;;;;;20722;6857;117867;-88
2022/08/21 09:33:34;;;;;;;4.20;3.60;;;29.10;37.90;;;;;;20488;6857;282554;-88
2022/08/21 09:36:00;;;;;;;3.73;3.50;;;29.20;35.20;;;;;;20683;6857;119908;-88
2022/08/21 09:38:36;;;;;;;4.80;3.58;;;29.20;36.60;;;;;;20515;6857;310984;-87
2022/08/21 09:41:00;;;;;;;3.70;3.40;;;29.30;34.90;;;;;;20719;6857;117472;-90
2022/08/21 09:43:27;;;;;;;3.37;3.13;;;29.30;36.40;;;;;;20718;6857;116537;-89
2022/08/21 09:46:12;;;;;;;6.93;3.27;;;29.10;37.00;;;;;;20459;6872;312653;-89
2022/08/21 09:48:42;;;;;;;5.20;3.43;;;29.30;33.90;;;;;;20672;6860;117646;-90
2022/08/21 09:51:11;;;;;;;4.73;3.50;;;29.30;35.00;;;;;;20437;6868;280337;-89
2022/08/21 09:53:36;;;;;;;5.93;4.10;;;29.40;32.50;;;;;;20462;6868;295517;-90
2022/08/21 09:58:47;;;;;;;4.23;3.60;;;30.00;33.30;;;;;;20452;6881;310627;-89
2022/08/21 10:15:14;;;;;;;4.17;3.50;;;30.90;31.10;;;;;;21296;6530;96428;-88
2022/08/21 10:18:00;;;;;;;6.32;3.55;;;30.70;31.10;;;;;;20340;6903;307771;-89
2022/08/21 10:20:46;;;;;;;4.67;3.17;;;30.70;31.00;;;;;;20652;6875;118572;-90
2022/08/21 10:23:29;;;;;;;3.87;3.23;;;30.50;30.80;;;;;;20367;6889;310821;-89
2022/08/21 10:25:57;;;;;;;4.62;3.53;;;30.50;30.80;;;;;;20431;6870;309379;-89
2022/08/21 10:28:33;;;;;;;5.15;3.90;;;30.60;30.60;;;;;;20455;6870;341238;-89
2022/08/21 10:31:12;;;;;;;4.10;3.77;;;30.80;30.60;;;;;;20403;6871;312319;-89
2022/08/21 10:34:11;;;;;;;4.07;3.33;;;30.90;29.60;;;;;;20648;6872;117494;-89
2022/08/21 10:36:37;;;;;;;5.97;5.55;;;30.70;31.20;;;;;;20428;6881;309795;-90
2022/08/21 10:39:05;;;;;;;3.10;2.90;;;30.70;29.80;;;;;;20634;6877;117853;-90
2022/08/21 10:41:58;;;;;;;3.28;2.85;;;30.50;31.50;;;;;;20478;6877;117973;-90
2022/08/21 10:44:30;;;;;;;3.33;3.03;;;30.30;32.30;;;;;;20444;6877;311982;-89
2022/08/21 10:47:16;;;;;;;3.27;2.97;;;30.50;31.20;;;;;;20592;6887;117598;-89
2022/08/21 10:49:58;;;;;;;3.27;2.90;;;30.40;32.30;;;;;;20599;6887;118234;-90
2022/08/21 10:53:04;;;;;;;4.17;3.00;;;30.20;30.80;;;;;;20357;6902;313021;-88
2022/08/21 10:55:36;;;;;;;2.85;2.65;;;30.20;30.80;;;;;;20448;6879;310164;-89
2022/08/21 10:58:11;;;;;;;3.40;2.73;;;30.50;31.40;;;;;;20542;6879;117733;-89
2022/08/21 11:00:51;;;;;;;2.93;2.63;;;30.50;32.40;;;;;;20603;6887;118180;-89
2022/08/21 11:03:15;;;;;;;2.87;2.57;;;30.30;32.00;;;;;;20574;6901;118052;-89
2022/08/21 11:05:49;;;;;;;2.80;2.47;;;30.10;32.80;;;;;;20553;6902;117873;-90
2022/08/21 11:08:30;;;;;;;2.90;2.70;;;30.00;33.20;;;;;;20567;6898;118271;-89
2022/08/21 11:10:57;;;;;;;4.13;2.53;;;29.90;33.70;;;;;;20399;6893;284724;-89
2022/08/21 11:13:28;;;;;;;4.77;2.60;;;30.10;29.90;;;;;;19790;6908;120005;-88
2022/08/21 11:16:07;;;;;;;3.77;2.60;;;30.10;30.90;;;;;;20368;6904;280761;-89
2022/08/21 11:18:52;;;;;;;3.80;2.65;;;30.20;29.20;;;;;;20382;6897;309996;-88
2022/08/21 11:21:48;;;;;;;2.90;2.70;;;30.50;29.60;;;;;;20395;6894;312123;-90
2022/08/21 11:24:46;;;;;;;4.10;2.40;;;30.70;28.80;;;;;;20591;6892;118263;-88
2022/08/21 11:27:25;;;;;;;2.73;2.53;;;30.60;30.60;;;;;;20616;6893;117992;-89
2022/08/21 11:29:53;;;;;;;4.23;2.67;;;30.20;32.90;;;;;;20616;6894;117704;-89
2022/08/21 11:32:44;;;;;;;2.70;2.50;;;30.20;32.20;;;;;;20360;6891;301031;-89
2022/08/21 11:35:10;;;;;;;3.37;2.67;;;30.40;31.00;;;;;;20597;6891;118402;-88
2022/08/21 11:37:49;;;;;;;4.55;2.60;;;30.40;32.10;;;;;;20207;6891;313766;-88
2022/08/21 11:40:37;;;;;;;3.37;2.60;;;30.60;29.60;;;;;;20393;6891;285771;-88
2022/08/21 11:43:03;;;;;;;3.00;2.70;;;30.80;28.80;;;;;;20375;6891;281440;-88
2022/08/21 11:45:42;;;;;;;3.37;2.50;;;31.00;28.40;;;;;;20408;6891;296982;-89
2022/08/21 11:48:27;;;;;;;2.87;2.50;;;31.10;28.60;;;;;;20595;6891;118728;-89
2022/08/21 11:50:53;;;;;;;3.70;2.87;;;31.00;29.30;;;;;;20368;6906;310929;-88
2022/08/21 11:53:28;;;;;;;3.13;2.87;;;31.00;30.70;;;;;;20364;6894;308721;-89
2022/08/21 11:56:04;;;;;;;3.33;2.97;;;31.10;29.40;;;;;;20370;6893;291034;-88
2022/08/21 11:58:50;;;;;;;2.83;2.63;;;31.20;27.70;;;;;;20391;6894;310450;-88
2022/08/21 12:01:15;;;;;;;2.77;2.57;;;31.20;28.20;;;;;;20476;6894;117663;-89
2022/08/21 12:03:41;;;;;;;4.60;2.80;;;30.90;29.10;;;;;;20402;6894;314939;-91
2022/08/21 12:06:09;;;;;;;3.23;2.50;;;30.80;28.60;;;;;;20543;6894;117254;-87
2022/08/21 12:08:35;;;;;;;3.12;2.90;;;30.60;29.70;;;;;;20428;6878;280819;-88
2022/08/21 12:11:14;;;;;;;2.90;2.70;;;30.60;29.50;;;;;;20440;6878;309040;-88
2022/08/21 12:13:39;;;;;;;2.57;2.37;;;30.70;28.50;;;;;;20677;6878;69346;-88
2022/08/21 12:16:11;;;;;;;2.53;2.33;;;30.60;29.40;;;;;;20378;6878;310705;-88
2022/08/21 12:18:38;;;;;;;3.17;2.50;;;30.60;28.30;;;;;;20635;6878;119119;-88
2022/08/21 12:21:18;;;;;;;3.10;2.90;;;30.50;29.70;;;;;;20661;6878;117500;-90
2022/08/21 12:23:45;;;;;;;2.70;2.53;;;30.20;30.30;;;;;;20437;6878;282626;-87
2022/08/21 12:39:53;;;;;;;3.40;2.80;;;29.60;32.90;;;;;;21150;6514;89988;31
2022/08/21 12:42:19;;;;;;;5.43;2.93;;;29.40;32.60;;;;;;21064;6611;119654;-90
2022/08/21 12:44:55;;;;;;;2.80;2.60;;;29.40;31.90;;;;;;20731;6715;276245;-90
2022/08/21 12:47:33;;;;;;;2.87;2.67;;;29.60;29.60;;;;;;20493;6754;314784;-89
2022/08/21 12:50:13;;;;;;;3.10;2.80;;;30.40;29.00;;;;;;19584;6781;304818;-86
2022/08/21 12:53:05;;;;;;;2.95;2.70;;;30.40;29.00;;;;;;20708;6730;335829;-89
2022/08/21 12:55:43;;;;;;;2.93;2.67;;;30.60;28.50;;;;;;20111;6808;122138;-88
2022/08/21 12:58:19;;;;;;;2.97;2.63;;;30.50;29.30;;;;;;20953;6731;117485;-88
2022/08/21 13:00:54;;;;;;;6.13;2.70;;;30.10;29.40;;;;;;20752;6731;310046;-88
2022/08/21 13:03:30;;;;;;;3.10;2.57;;;30.20;28.30;;;;;;20987;6731;116989;-88
2022/08/21 13:06:05;;;;;;;2.73;2.40;;;30.00;29.30;;;;;;20912;6721;117224;-87
2022/08/21 13:08:41;;;;;;;3.07;2.87;;;29.90;30.30;;;;;;20861;6752;122479;-88
2022/08/21 13:11:17;;;;;;;3.40;2.80;;;29.70;30.90;;;;;;20689;6739;282107;-88
2022/08/21 13:13:52;;;;;;;2.80;2.60;;;29.90;29.40;;;;;;20838;6761;117028;-88
2022/08/21 13:16:28;;;;;;;2.83;2.50;;;29.90;29.90;;;;;;20680;6790;118504;-88
2022/08/21 13:19:04;;;;;;;2.70;2.50;;;29.80;30.00;;;;;;20656;6761;283430;-88